createdAt,value
2022-09-13T00:02:24.140Z,5.30
2022-09-13T00:04:50.927Z,6.20
2022-09-13T00:07:17.601Z,5.38
2022-09-13T00:09:44.418Z,4.43
2022-09-13T00:12:11.019Z,4.88
2022-09-13T00:14:37.655Z,4.57
2022-09-13T00:17:04.460Z,4.90
2022-09-13T00:19:31.102Z,5.05
2022-09-13T00:21:57.746Z,4.60
2022-09-13T00:24:24.464Z,4.95
2022-09-13T00:26:51.087Z,4.82
2022-09-13T00:29:17.715Z,4.75
2022-09-13T00:31:44.461Z,4.07
2022-09-13T00:34:11.364Z,5.60
2022-09-13T00:36:37.992Z,5.68
2022-09-13T00:39:04.639Z,5.22
2022-09-13T00:41:31.345Z,5.30
2022-09-13T00:44:00.507Z,5.30
2022-09-13T00:46:48.882Z,5.00
2022-09-13T00:49:37.040Z,4.78
2022-09-13T00:52:07.204Z,5.25
2022-09-13T00:54:42.791Z,5.32
2022-09-13T00:57:10.578Z,5.32
2022-09-13T00:59:43.819Z,4.53
2022-09-13T01:02:11.076Z,5.07
2022-09-13T01:04:38.680Z,4.68
2022-09-13T01:07:08.769Z,4.60
2022-09-13T01:09:38.121Z,4.45
2022-09-13T01:12:35.337Z,4.57
2022-09-13T01:15:04.283Z,4.47
2022-09-13T01:17:32.189Z,4.78
2022-09-13T01:19:59.913Z,4.40
2022-09-13T01:22:51.484Z,4.57
2022-09-13T01:25:30.331Z,5.97
2022-09-13T01:28:30.180Z,4.90
2022-09-13T01:31:04.629Z,4.20
2022-09-13T01:33:44.998Z,4.38
2022-09-13T01:36:32.842Z,4.32
2022-09-13T01:39:28.058Z,7.93
2022-09-13T01:42:17.651Z,5.88
2022-09-13T01:45:03.453Z,7.82
2022-09-13T01:47:52.996Z,4.97
2022-09-13T01:50:24.676Z,5.90
2022-09-13T01:53:18.437Z,5.15
2022-09-13T01:55:49.026Z,4.97
2022-09-13T01:58:37.422Z,5.55
2022-09-13T02:01:08.890Z,4.40
2022-09-13T02:03:58.763Z,4.30
2022-09-13T02:06:32.668Z,4.40
2022-09-13T02:09:09.657Z,4.50
2022-09-13T02:11:38.255Z,4.47
2022-09-13T02:14:15.410Z,4.63
2022-09-13T02:17:04.420Z,4.93
2022-09-13T02:19:38.427Z,4.30
2022-09-13T02:22:06.933Z,6.05
2022-09-13T02:24:36.817Z,3.83
2022-09-13T02:27:08.506Z,5.00
2022-09-13T02:29:37.657Z,4.60
2022-09-13T02:32:09.923Z,4.68
2022-09-13T02:34:47.432Z,5.65
2022-09-13T02:37:14.087Z,5.00
2022-09-13T02:39:48.194Z,4.38
2022-09-13T02:44:46.190Z,5.97
2022-09-13T02:47:50.610Z,4.85
2022-09-13T02:50:23.374Z,7.07
2022-09-13T02:52:59.090Z,4.38
2022-09-13T02:56:14.495Z,5.22
2022-09-13T02:59:04.469Z,4.15
2022-09-13T03:01:31.335Z,4.78
2022-09-13T03:03:58.075Z,4.70
2022-09-13T03:06:28.606Z,9.40
2022-09-13T03:08:58.959Z,4.90
2022-09-13T03:11:51.181Z,5.50
2022-09-13T03:14:48.148Z,4.90
2022-09-13T03:18:12.689Z,5.38
2022-09-13T03:20:57.063Z,5.70
2022-09-13T03:23:35.021Z,5.13
2022-09-13T03:26:35.125Z,4.47
2022-09-13T03:29:13.571Z,5.10
2022-09-13T03:31:54.224Z,5.47
2022-09-13T03:34:47.779Z,4.35
2022-09-13T03:37:21.065Z,4.07
2022-09-13T03:39:53.885Z,5.22
2022-09-13T03:42:25.182Z,4.90
2022-09-13T03:44:53.785Z,4.40
2022-09-13T03:47:21.646Z,4.97
2022-09-13T03:49:50.665Z,4.53
2022-09-13T03:52:17.421Z,5.38
2022-09-13T03:54:44.043Z,4.72
2022-09-13T03:57:23.140Z,4.85
2022-09-13T03:59:58.832Z,6.70
2022-09-13T04:02:26.096Z,4.22
2022-09-13T04:04:53.278Z,4.43
2022-09-13T04:07:21.993Z,4.70
2022-09-13T04:09:48.953Z,6.10
2022-09-13T04:12:16.431Z,6.95
2022-09-13T04:14:46.465Z,4.18
2022-09-13T04:17:13.991Z,4.13
2022-09-13T04:19:40.853Z,4.00
2022-09-13T04:22:07.868Z,4.82
2022-09-13T04:24:38.878Z,4.10
2022-09-13T04:27:06.236Z,4.70
2022-09-13T04:29:33.449Z,4.03
2022-09-13T04:32:00.279Z,5.75
2022-09-13T04:34:26.941Z,5.00
2022-09-13T04:36:53.897Z,4.25
2022-09-13T04:39:21.360Z,5.25
2022-09-13T04:41:48.837Z,5.07
2022-09-13T04:44:16.754Z,4.68
2022-09-13T04:46:43.802Z,6.93
2022-09-13T04:49:11.427Z,4.65
2022-09-13T04:51:38.232Z,3.90
2022-09-13T04:54:05.511Z,5.55
2022-09-13T04:56:32.394Z,7.50
2022-09-13T04:58:59.008Z,4.70
2022-09-13T05:01:27.847Z,5.55
2022-09-13T05:03:55.548Z,5.55
2022-09-13T05:06:22.883Z,4.68
2022-09-13T05:08:53.047Z,4.38
2022-09-13T05:11:19.824Z,4.88
2022-09-13T05:13:54.597Z,6.75
2022-09-13T05:16:22.850Z,3.72
2022-09-13T05:18:49.806Z,5.22
2022-09-13T05:21:16.910Z,4.50
2022-09-13T05:23:43.651Z,4.35
2022-09-13T05:26:10.536Z,4.40
2022-09-13T05:28:37.641Z,6.72
2022-09-13T05:31:07.362Z,4.68
2022-09-13T05:33:36.486Z,5.13
2022-09-13T05:36:07.407Z,5.47
2022-09-13T05:38:34.125Z,6.07
2022-09-13T05:41:03.146Z,4.55
2022-09-13T05:43:31.921Z,5.07
2022-09-13T05:46:03.563Z,6.15
2022-09-13T05:48:30.746Z,5.45
2022-09-13T05:50:58.714Z,5.32
2022-09-13T05:53:25.674Z,5.13
2022-09-13T05:55:52.261Z,4.68
2022-09-13T05:58:18.909Z,4.80
2022-09-13T06:00:45.731Z,5.32
2022-09-13T06:03:12.298Z,5.85
2022-09-13T06:05:38.911Z,5.25
2022-09-13T06:08:05.525Z,5.05
2022-09-13T06:10:32.127Z,6.28
2022-09-13T06:12:58.855Z,5.72
2022-09-13T06:15:25.631Z,5.57
2022-09-13T06:17:52.204Z,4.55
2022-09-13T06:20:19.050Z,8.18
2022-09-13T06:22:48.010Z,5.32
2022-09-13T06:25:15.069Z,6.75
2022-09-13T06:27:41.909Z,5.38
2022-09-13T06:30:09.033Z,6.43
2022-09-13T06:32:35.750Z,5.53
2022-09-13T06:35:02.375Z,6.15
2022-09-13T06:37:29.050Z,6.47
2022-09-13T06:39:55.729Z,6.25
2022-09-13T06:42:22.410Z,6.60
2022-09-13T06:44:49.035Z,6.78
2022-09-13T06:47:15.625Z,7.05
2022-09-13T06:49:42.677Z,7.82
2022-09-13T06:52:09.279Z,6.70
2022-09-13T06:54:35.910Z,8.10
2022-09-13T06:57:03.522Z,7.07
2022-09-13T06:59:30.422Z,7.00
2022-09-13T07:01:57.144Z,7.38
2022-09-13T07:04:23.918Z,5.90
2022-09-13T07:06:53.193Z,5.72
2022-09-13T07:09:24.501Z,6.55
2022-09-13T07:11:54.452Z,9.32
2022-09-13T07:14:26.511Z,9.32
2022-09-13T07:16:53.878Z,7.72
2022-09-13T07:19:22.971Z,5.97
2022-09-13T07:21:50.107Z,6.57
2022-09-13T07:24:17.501Z,6.85
2022-09-13T07:26:44.163Z,8.45
2022-09-13T07:29:14.920Z,6.63
2022-09-13T07:31:43.745Z,5.85
2022-09-13T07:34:19.063Z,6.22
2022-09-13T07:36:46.925Z,6.03
2022-09-13T07:39:17.243Z,7.15
2022-09-13T07:41:46.821Z,6.47
2022-09-13T07:44:13.638Z,6.32
2022-09-13T07:46:41.694Z,7.00
2022-09-13T07:49:09.808Z,6.70
2022-09-13T07:51:39.526Z,7.47
2022-09-13T07:54:11.973Z,5.88
2022-09-13T07:56:40.090Z,6.57
2022-09-13T07:59:11.419Z,6.07
2022-09-13T08:01:45.973Z,6.43
2022-09-13T08:04:14.983Z,7.32
2022-09-13T08:06:44.684Z,5.32
2022-09-13T08:09:11.757Z,6.68
2022-09-13T08:11:43.875Z,6.63
2022-09-13T08:14:12.834Z,5.80
2022-09-13T08:16:39.972Z,8.00
2022-09-13T08:19:07.774Z,6.55
2022-09-13T08:21:38.675Z,6.22
2022-09-13T08:24:07.205Z,6.45
2022-09-13T08:26:34.598Z,6.32
2022-09-13T08:29:03.895Z,7.97
2022-09-13T08:31:30.997Z,7.97
2022-09-13T08:33:58.169Z,7.45
2022-09-13T08:36:26.320Z,6.03
2022-09-13T08:38:59.076Z,6.78
2022-09-13T08:41:47.998Z,8.70
2022-09-13T08:44:28.652Z,7.63
2022-09-13T08:47:09.630Z,8.15
2022-09-13T08:49:41.576Z,8.43
2022-09-13T08:52:20.368Z,6.57
2022-09-13T08:54:47.051Z,8.55
2022-09-13T08:57:19.625Z,7.70
2022-09-13T09:00:04.799Z,7.10
2022-09-13T09:02:54.313Z,9.27
2022-09-13T09:05:23.787Z,7.85
2022-09-13T09:07:53.948Z,7.05
2022-09-13T09:10:24.546Z,9.63
2022-09-13T09:12:58.278Z,8.13
2022-09-13T09:15:26.310Z,9.32
2022-09-13T09:17:59.961Z,7.57
2022-09-13T09:20:32.927Z,10.82
2022-09-13T09:23:21.763Z,10.32
2022-09-13T09:25:51.902Z,9.35
2022-09-13T09:28:19.502Z,8.75
2022-09-13T09:31:07.095Z,7.38
2022-09-13T09:33:48.427Z,7.50
2022-09-13T09:36:49.062Z,6.85
2022-09-13T09:39:16.526Z,8.05
2022-09-13T09:41:44.433Z,6.00
2022-09-13T09:44:22.238Z,8.20
2022-09-13T09:47:02.998Z,6.93
2022-09-13T09:49:52.342Z,10.23
2022-09-13T09:52:22.474Z,7.70
2022-09-13T09:54:50.393Z,6.60
2022-09-13T09:57:20.592Z,7.85
2022-09-13T09:59:47.585Z,6.63
2022-09-13T10:02:20.483Z,6.97
2022-09-13T10:04:55.952Z,6.97
2022-09-13T10:07:32.363Z,6.78
2022-09-13T10:10:21.815Z,8.93
2022-09-13T10:12:52.048Z,9.35
2022-09-13T10:15:20.626Z,7.60
2022-09-13T10:18:43.071Z,7.82
2022-09-13T10:21:06.619Z,8.18
2022-09-13T10:23:34.980Z,8.15
2022-09-13T10:26:10.550Z,7.80
2022-09-13T10:28:45.133Z,7.90
2022-09-13T10:31:17.289Z,6.97
2022-09-13T10:34:01.045Z,8.48
2022-09-13T10:36:51.784Z,6.70
2022-09-13T10:39:21.652Z,7.03
2022-09-13T10:42:01.158Z,7.53
2022-09-13T10:44:40.949Z,9.25
2022-09-13T10:47:28.272Z,7.35
2022-09-13T10:49:57.020Z,7.88
2022-09-13T10:52:28.109Z,8.70
2022-09-13T10:54:55.763Z,6.82
2022-09-13T10:57:37.737Z,8.82
2022-09-13T11:00:10.769Z,8.57
2022-09-13T11:02:56.461Z,7.85
2022-09-13T11:05:34.864Z,8.15
2022-09-13T11:08:21.150Z,11.15
2022-09-13T11:11:11.945Z,8.48
2022-09-13T11:13:45.035Z,8.52
2022-09-13T11:16:29.973Z,8.40
2022-09-13T11:19:27.752Z,8.57
2022-09-13T11:22:22.127Z,9.13
2022-09-13T11:25:02.957Z,7.38
2022-09-13T11:27:54.469Z,8.27
2022-09-13T11:30:27.781Z,9.15
2022-09-13T11:33:24.284Z,8.55
2022-09-13T11:39:03.476Z,8.00
2022-09-13T11:41:43.482Z,8.23
2022-09-13T11:44:26.566Z,9.27
2022-09-13T11:47:18.731Z,9.63
2022-09-13T11:50:18.536Z,9.95
2022-09-13T11:52:57.438Z,9.80
2022-09-13T11:55:29.446Z,8.13
2022-09-13T11:57:58.656Z,10.23
2022-09-13T12:00:43.211Z,7.72
2022-09-13T12:03:36.711Z,9.73
2022-09-13T12:06:12.545Z,9.80
2022-09-13T12:08:48.314Z,8.73
2022-09-13T12:11:23.195Z,7.88
2022-09-13T12:13:53.243Z,10.13
2022-09-13T12:16:45.912Z,9.05
2022-09-13T12:19:43.397Z,8.70
2022-09-13T12:22:10.912Z,6.82
2022-09-13T12:24:42.628Z,7.28
2022-09-13T12:27:15.430Z,6.10
2022-09-13T12:30:09.223Z,8.73
2022-09-13T12:32:38.675Z,6.15
2022-09-13T12:35:27.138Z,8.50
2022-09-13T12:38:04.279Z,6.47
2022-09-13T12:41:08.273Z,6.20
2022-09-13T12:43:56.772Z,6.05
2022-09-13T12:46:37.115Z,6.18
2022-09-13T12:49:38.802Z,5.93
2022-09-13T12:52:17.864Z,3.92
2022-09-13T12:55:29.176Z,4.18
2022-09-13T12:58:34.300Z,5.03
2022-09-13T13:01:11.487Z,3.60
2022-09-13T13:03:50.586Z,4.32
2022-09-13T13:06:32.930Z,4.65
2022-09-13T13:09:04.070Z,3.65
2022-09-13T13:11:42.438Z,4.03
2022-09-13T13:14:46.206Z,4.35
2022-09-13T13:17:47.223Z,3.53
2022-09-13T13:20:39.817Z,4.65
2022-09-13T13:23:29.974Z,3.90
2022-09-13T13:26:08.083Z,3.65
2022-09-13T13:28:52.014Z,4.63
2022-09-13T13:31:24.895Z,3.97
2022-09-13T13:33:58.508Z,5.35
2022-09-13T13:36:26.456Z,4.93
2022-09-13T13:38:53.717Z,6.28
2022-09-13T13:41:38.701Z,4.38
2022-09-13T13:44:23.737Z,3.45
2022-09-13T13:47:14.684Z,3.10
2022-09-13T13:49:41.249Z,4.03
2022-09-13T13:52:07.960Z,4.00
2022-09-13T13:54:49.772Z,4.20
2022-09-13T13:57:35.551Z,3.22
2022-09-13T14:00:23.611Z,15.10
2022-09-13T14:02:50.125Z,4.20
2022-09-13T14:05:54.674Z,4.93
2022-09-13T14:08:42.665Z,3.47
2022-09-13T14:11:15.845Z,4.53
2022-09-13T14:14:01.181Z,4.20
2022-09-13T14:17:17.323Z,3.63
2022-09-13T14:19:49.694Z,4.63
2022-09-13T14:22:26.809Z,4.47
2022-09-13T14:24:58.484Z,5.72
2022-09-13T14:27:27.679Z,7.10
2022-09-13T14:29:56.700Z,4.68
2022-09-13T14:32:26.888Z,4.38
2022-09-13T14:35:01.385Z,3.72
2022-09-13T14:37:36.430Z,4.35
2022-09-13T14:40:24.031Z,4.30
2022-09-13T14:42:56.004Z,3.47
2022-09-13T14:45:36.028Z,3.72
2022-09-13T14:48:11.513Z,3.97
2022-09-13T14:50:55.616Z,4.25
2022-09-13T14:53:24.738Z,4.72
2022-09-13T14:56:33.809Z,4.97
2022-09-13T14:59:02.967Z,4.72
2022-09-13T15:01:35.051Z,3.83
2022-09-13T15:04:06.649Z,5.43
2022-09-13T15:06:41.163Z,4.82
2022-09-13T15:09:29.874Z,7.05
2022-09-13T15:12:01.712Z,4.68
2022-09-13T15:14:38.162Z,4.35
2022-09-13T15:17:14.124Z,3.92
2022-09-13T15:19:42.740Z,5.43
2022-09-13T15:22:20.237Z,3.70
2022-09-13T15:24:49.707Z,5.07
2022-09-13T15:27:20.974Z,4.80
2022-09-13T15:29:53.155Z,2.55
2022-09-13T15:32:33.523Z,4.03
2022-09-13T15:35:01.167Z,5.90
2022-09-13T15:37:34.205Z,4.15
2022-09-13T15:40:18.701Z,3.30
2022-09-13T15:42:52.730Z,4.38
2022-09-13T15:45:20.846Z,5.30
2022-09-13T15:47:49.125Z,3.88
2022-09-13T15:50:21.681Z,5.07
2022-09-13T15:52:48.300Z,6.00
2022-09-13T15:55:15.036Z,8.95
2022-09-13T15:57:43.999Z,3.88
2022-09-13T16:00:16.012Z,3.92
2022-09-13T16:02:42.785Z,4.22
2022-09-13T16:05:10.276Z,3.80
2022-09-13T16:07:37.066Z,2.55
2022-09-13T16:10:04.571Z,2.45
2022-09-13T16:12:31.251Z,2.60
2022-09-13T16:14:58.441Z,2.63
2022-09-13T16:17:27.075Z,3.78
2022-09-13T16:19:54.339Z,2.40
2022-09-13T16:22:21.533Z,3.05
2022-09-13T16:24:51.618Z,4.13
2022-09-13T16:27:19.335Z,3.85
2022-09-13T16:29:46.272Z,2.72
2022-09-13T16:32:13.041Z,3.67
2022-09-13T16:34:39.652Z,4.70
2022-09-13T16:37:06.521Z,3.03
2022-09-13T16:39:33.121Z,2.92
2022-09-13T16:41:59.745Z,3.50
2022-09-13T16:44:26.466Z,4.10
2022-09-13T16:46:53.255Z,2.42
2022-09-13T16:49:19.893Z,3.75
2022-09-13T16:51:48.134Z,3.97
2022-09-13T16:54:14.747Z,3.97
2022-09-13T16:56:41.443Z,2.95
2022-09-13T16:59:08.143Z,3.20
2022-09-13T17:01:34.838Z,4.97
2022-09-13T17:04:01.875Z,3.70
2022-09-13T17:06:28.675Z,3.50
2022-09-13T17:09:01.582Z,4.38
2022-09-13T17:11:30.715Z,2.80
2022-09-13T17:13:59.404Z,2.60
2022-09-13T17:16:32.898Z,3.53
2022-09-13T17:19:01.717Z,4.38
2022-09-13T17:21:33.192Z,5.80
2022-09-13T17:24:00.394Z,5.30
2022-09-13T17:26:27.003Z,3.55
2022-09-13T17:28:53.602Z,5.55
2022-09-13T17:31:20.654Z,4.13
2022-09-13T17:33:47.330Z,3.50
2022-09-13T17:36:14.551Z,4.00
2022-09-13T17:38:41.784Z,2.95
2022-09-13T17:41:13.566Z,4.57
2022-09-13T17:43:42.484Z,3.33
2022-09-13T17:46:14.444Z,3.03
2022-09-13T17:48:41.580Z,4.57
2022-09-13T17:51:13.485Z,2.92
2022-09-13T17:53:42.017Z,4.93
2022-09-13T17:56:08.644Z,2.83
2022-09-13T17:58:35.574Z,3.53
2022-09-13T18:01:04.035Z,2.53
2022-09-13T18:03:31.746Z,4.30
2022-09-13T18:05:59.794Z,4.50
2022-09-13T18:08:27.841Z,4.15
2022-09-13T18:11:12.278Z,6.28
2022-09-13T18:13:40.066Z,3.00
2022-09-13T18:16:16.098Z,3.47
2022-09-13T18:18:47.416Z,6.63
2022-09-13T18:21:14.692Z,3.45
2022-09-13T18:23:41.584Z,5.72
2022-09-13T18:26:11.314Z,3.00
2022-09-13T18:28:38.203Z,4.03
2022-09-13T18:31:07.073Z,7.13
2022-09-13T18:33:33.860Z,5.57
2022-09-13T18:36:02.742Z,5.13
2022-09-13T18:38:32.936Z,5.88
2022-09-13T18:41:00.276Z,3.40
2022-09-13T18:43:27.028Z,4.22
2022-09-13T18:45:58.139Z,3.88
2022-09-13T18:48:24.948Z,5.65
2022-09-13T18:50:51.617Z,5.20
2022-09-13T18:53:18.554Z,3.47
2022-09-13T18:55:45.409Z,4.90
2022-09-13T18:58:13.642Z,3.92
2022-09-13T19:00:40.757Z,4.32
2022-09-13T19:03:12.690Z,3.20
2022-09-13T19:05:39.761Z,3.58
2022-09-13T19:08:10.490Z,3.70
2022-09-13T19:10:38.012Z,3.83
2022-09-13T19:13:04.909Z,4.38
2022-09-13T19:15:32.059Z,3.88
2022-09-13T19:17:59.208Z,4.32
2022-09-13T19:20:26.030Z,5.28
2022-09-13T19:22:52.811Z,4.88
2022-09-13T19:25:19.552Z,5.32
2022-09-13T19:27:46.126Z,4.80
2022-09-13T19:30:13.410Z,4.15
2022-09-13T19:32:40.409Z,4.60
2022-09-13T19:35:07.367Z,4.38
2022-09-13T19:37:33.948Z,4.95
2022-09-13T19:40:00.639Z,5.97
2022-09-13T19:42:27.461Z,4.47
2022-09-13T19:44:54.164Z,4.60
2022-09-13T19:50:08.613Z,3.22
2022-09-13T19:52:35.232Z,4.97
2022-09-13T19:55:01.918Z,3.67
2022-09-13T19:57:28.613Z,3.38
2022-09-13T19:59:55.331Z,3.30
2022-09-13T20:02:22.136Z,3.75
2022-09-13T20:04:49.306Z,4.03
2022-09-13T20:07:16.167Z,5.25
2022-09-13T20:09:47.201Z,6.20
2022-09-13T20:12:14.298Z,3.55
2022-09-13T20:14:43.666Z,4.20
2022-09-13T20:17:10.328Z,4.72
2022-09-13T20:19:41.790Z,3.78
2022-09-13T20:22:10.578Z,4.22
2022-09-13T20:24:37.235Z,4.72
2022-09-13T20:27:03.965Z,4.70
2022-09-13T20:29:31.575Z,3.75
2022-09-13T20:31:59.693Z,3.88
2022-09-13T20:34:27.238Z,4.65
2022-09-13T20:36:54.383Z,5.90
2022-09-13T20:39:20.969Z,4.50
2022-09-13T20:41:49.373Z,5.45
2022-09-13T20:44:16.416Z,3.13
2022-09-13T20:46:43.489Z,4.18
2022-09-13T20:49:10.348Z,3.47
2022-09-13T20:51:37.615Z,5.70
2022-09-13T20:54:05.324Z,4.38
2022-09-13T20:56:36.226Z,6.43
2022-09-13T20:59:03.822Z,4.38
2022-09-13T21:01:32.640Z,7.07
2022-09-13T21:04:02.799Z,4.93
2022-09-13T21:06:31.705Z,6.88
2022-09-13T21:09:00.109Z,6.03
2022-09-13T21:11:36.693Z,3.72
2022-09-13T21:14:08.545Z,4.38
2022-09-13T21:16:39.054Z,4.75
2022-09-13T21:19:06.210Z,5.47
2022-09-13T21:21:34.820Z,6.22
2022-09-13T21:24:04.326Z,3.58
2022-09-13T21:26:31.645Z,6.65
2022-09-13T21:28:58.903Z,6.50
2022-09-13T21:31:30.441Z,5.13
2022-09-13T21:34:02.678Z,3.15
2022-09-13T21:36:30.640Z,3.83
2022-09-13T21:38:57.584Z,4.43
2022-09-13T21:41:25.979Z,5.32
2022-09-13T21:43:53.752Z,6.47
2022-09-13T21:46:22.946Z,5.03
2022-09-13T21:48:51.974Z,3.03
2022-09-13T21:51:18.527Z,3.80
2022-09-13T21:53:46.519Z,5.82
2022-09-13T21:56:17.823Z,4.47
2022-09-13T21:59:04.991Z,3.97
2022-09-13T22:01:34.131Z,3.97
2022-09-13T22:04:01.419Z,3.40
2022-09-13T22:06:33.133Z,3.47
2022-09-13T22:09:01.722Z,4.80
2022-09-13T22:11:30.649Z,10.00
2022-09-13T22:13:58.023Z,3.55
2022-09-13T22:16:28.930Z,4.53
2022-09-13T22:18:59.102Z,6.18
2022-09-13T22:21:30.922Z,4.00
2022-09-13T22:24:01.011Z,3.03
2022-09-13T22:26:29.557Z,4.28
2022-09-13T22:28:58.337Z,4.57
2022-09-13T22:31:28.063Z,2.78
2022-09-13T22:33:56.451Z,3.75
2022-09-13T22:36:23.750Z,3.38
2022-09-13T22:38:54.758Z,4.68
2022-09-13T22:41:27.731Z,3.60
2022-09-13T22:43:55.034Z,3.85
2022-09-13T22:46:23.988Z,7.45
2022-09-13T22:48:50.858Z,3.55
2022-09-13T22:51:18.454Z,3.35
2022-09-13T22:53:46.832Z,3.25
2022-09-13T22:56:25.500Z,3.65
2022-09-13T22:59:00.638Z,4.38
2022-09-13T23:01:28.794Z,3.85
2022-09-13T23:03:56.438Z,2.63
2022-09-13T23:06:24.910Z,3.78
2022-09-13T23:08:53.002Z,3.25
2022-09-13T23:11:31.070Z,2.70
2022-09-13T23:14:02.797Z,3.42
2022-09-13T23:16:32.908Z,6.03
2022-09-13T23:19:03.003Z,3.75
2022-09-13T23:21:32.765Z,3.00
2022-09-13T23:24:00.874Z,3.58
2022-09-13T23:26:29.146Z,3.60
2022-09-13T23:29:00.401Z,5.88
2022-09-13T23:31:30.013Z,3.33
2022-09-13T23:33:59.733Z,5.28
2022-09-13T23:36:29.229Z,2.65
2022-09-13T23:38:57.419Z,3.75
2022-09-13T23:41:25.864Z,7.13
2022-09-13T23:43:53.367Z,3.67
2022-09-13T23:46:20.303Z,4.32
2022-09-13T23:48:47.009Z,3.63
2022-09-13T23:51:19.656Z,3.30
2022-09-13T23:53:46.652Z,6.05
2022-09-13T23:56:14.050Z,4.20
2022-09-13T23:58:40.757Z,3.45
